Time;durP1;ratioP1;P1;durP2;ratioP2;P2;SDS_P1;SDS_P2;PMS_P1;PMS_P2;Temp;Humidity;BMP_temperature;BMP_pressure;BME280_temperature;BME280_humidity;BME280_pressure;Samples;Min_cycle;Max_cycle;Signal;HPM_P1;HPM_P2
2022/03/02 00:01:58;;;;;;;17.77;5.70;;;;;;;5.12;27.92;101430.91;5428695;32;34608;-67
2022/03/02 00:05:00;;;;;;;11.40;4.73;;;;;;;4.49;28.71;101430.84;5392458;32;34761;-67
2022/03/02 00:08:03;;;;;;;12.37;4.63;;;;;;;5.65;27.18;101419.56;5399687;32;33984;-73
2022/03/02 00:11:05;;;;;;;12.37;4.85;;;;;;;5.64;27.07;101423.91;5407803;32;35232;-74
2022/03/02 00:14:07;;;;;;;11.27;4.93;;;;;;;4.33;28.96;101429.09;5428411;32;34299;-73
2022/03/02 00:17:10;;;;;;;12.60;6.00;;;;;;;3.56;30.32;101421.78;5409401;32;38501;-69
2022/03/02 00:20:13;;;;;;;11.12;4.82;;;;;;;3.48;30.46;101419.16;5386516;32;34114;-67
2022/03/02 00:23:15;;;;;;;12.17;5.00;;;;;;;3.77;30.28;101430.56;5413185;32;35164;-73
2022/03/02 00:26:18;;;;;;;13.30;4.53;;;;;;;5.12;27.73;101417.91;5412102;32;34525;-68
2022/03/02 00:29:20;;;;;;;12.50;4.67;;;;;;;4.97;27.67;101416.16;5423085;32;35231;-68
2022/03/02 00:32:22;;;;;;;13.20;4.60;;;;;;;4.40;28.51;101415.22;5425015;32;35077;-72
2022/03/02 00:35:25;;;;;;;10.90;4.67;;;;;;;3.62;29.96;101424.44;5432887;32;34601;-73
2022/03/02 00:38:28;;;;;;;13.15;5.40;;;;;;;4.42;28.89;101415.22;5407152;32;34868;-73
2022/03/02 00:41:30;;;;;;;10.10;4.40;;;;;;;3.86;29.88;101413.25;5393230;32;34505;-74
2022/03/02 00:44:33;;;;;;;13.73;4.90;;;;;;;3.79;30.01;101397.62;5400273;32;34920;-73
2022/03/02 00:47:35;;;;;;;12.93;5.17;;;;;;;3.30;31.13;101404.28;5405386;32;34784;-68
2022/03/02 00:50:38;;;;;;;12.03;4.03;;;;;;;3.56;30.73;101399.25;5431584;32;34077;-67
2022/03/02 00:53:40;;;;;;;11.03;3.97;;;;;;;3.64;30.43;101386.28;5417598;32;45134;-73
2022/03/02 00:56:43;;;;;;;13.43;5.10;;;;;;;3.46;30.43;101381.84;5415603;32;35330;-68
2022/03/02 00:59:45;;;;;;;21.77;7.07;;;;;;;3.46;31.47;101389.66;5425093;32;35293;-73
2022/03/02 01:02:47;;;;;;;14.13;5.30;;;;;;;3.56;32.21;101386.25;5424956;32;34109;-73
2022/03/02 01:05:49;;;;;;;13.30;5.37;;;;;;;3.46;31.73;101374.94;5430037;32;34506;-74
2022/03/02 01:08:52;;;;;;;13.00;4.93;;;;;;;3.55;31.61;101370.66;5408640;32;35297;-72
2022/03/02 01:11:54;;;;;;;14.00;5.23;;;;;;;3.19;32.64;101369.56;5409144;32;34676;-67
2022/03/02 01:14:56;;;;;;;11.17;5.13;;;;;;;2.80;33.46;101373.59;5399782;32;35248;-72
2022/03/02 01:17:58;;;;;;;15.00;6.07;;;;;;;2.93;33.83;101364.19;5409496;32;35296;-73
2022/03/02 01:21:00;;;;;;;15.57;6.40;;;;;;;2.29;35.16;101356.69;5403930;32;34510;-68
2022/03/02 01:24:03;;;;;;;15.33;6.27;;;;;;;2.55;35.24;101346.56;5400005;32;34721;-67
2022/03/02 01:27:05;;;;;;;15.47;6.30;;;;;;;2.38;35.63;101353.31;5423945;32;34045;-68
2022/03/02 01:30:08;;;;;;;15.30;6.40;;;;;;;2.94;34.93;101350.34;5403157;32;35272;-74
2022/03/02 01:33:10;;;;;;;13.52;6.15;;;;;;;3.04;34.59;101343.50;5410288;32;43760;-73
2022/03/02 01:36:12;;;;;;;13.93;6.83;;;;;;;2.46;36.08;101340.44;5402315;32;35274;-73
2022/03/02 01:39:15;;;;;;;17.93;7.47;;;;;;;1.93;37.71;101344.19;5430221;32;35213;-73
2022/03/02 01:42:17;;;;;;;17.67;7.60;;;;;;;1.69;38.20;101349.09;5406012;32;34847;-67
2022/03/02 01:45:21;;;;;;;18.93;7.83;;;;;;;1.77;37.68;101339.69;5403067;32;34767;-67
2022/03/02 01:48:23;;;;;;;18.13;7.60;;;;;;;1.75;37.65;101342.28;5409467;32;34300;-72
2022/03/02 01:51:25;;;;;;;16.87;8.00;;;;;;;1.43;38.56;101344.44;5392580;32;34676;-67
2022/03/02 01:54:27;;;;;;;19.50;8.83;;;;;;;1.59;38.35;101336.00;5393850;32;34790;-73
2022/03/02 01:57:29;;;;;;;17.17;7.93;;;;;;;1.71;37.37;101334.44;5419408;32;35859;-71
2022/03/02 02:00:32;;;;;;;18.53;8.60;;;;;;;1.56;38.20;101341.16;5396998;32;34909;-73
2022/03/02 02:03:34;;;;;;;19.47;8.87;;;;;;;1.33;38.40;101334.81;5396288;32;35273;-67
2022/03/02 02:06:37;;;;;;;19.40;8.47;;;;;;;2.16;36.24;101334.06;5415059;32;35108;-73
2022/03/02 02:09:39;;;;;;;19.50;8.67;;;;;;;1.81;37.28;101331.13;5408689;32;35424;-68
2022/03/02 02:12:41;;;;;;;20.17;8.53;;;;;;;2.67;36.08;101333.69;5408962;32;43355;-67
2022/03/02 02:15:44;;;;;;;17.20;8.53;;;;;;;3.26;34.44;101312.44;5407098;32;34711;-73
2022/03/02 02:18:50;;;;;;;19.73;9.70;;;;;;;3.41;34.22;101321.19;5386744;32;35297;-67
2022/03/02 02:21:52;;;;;;;18.27;8.90;;;;;;;1.56;37.68;101320.44;5409270;32;35134;-68
2022/03/02 02:24:54;;;;;;;24.07;8.57;;;;;;;1.39;38.37;101319.34;5418558;32;36122;-67
2022/03/02 02:27:56;;;;;;;20.43;8.83;;;;;;;1.45;38.49;101318.56;5418413;32;35364;-73
2022/03/02 02:31:00;;;;;;;24.27;9.53;;;;;;;0.99;39.61;101325.69;5429870;32;34251;-67
2022/03/02 02:34:02;;;;;;;;;;;;;;;1.23;39.22;101322.59;5421884;32;34874;-67
2022/03/02 02:37:05;;;;;;;19.33;8.73;;;;;;;1.45;39.24;101321.16;5430980;32;34618;-73
2022/03/02 02:40:11;;;;;;;19.65;8.70;;;;;;;2.93;36.25;101314.84;5393417;32;34565;-67
2022/03/02 02:43:15;;;;;;;20.73;8.30;;;;;;;2.36;37.50;101308.31;5377342;32;45138;-72
2022/03/02 02:46:17;;;;;;;23.42;10.48;;;;;;;1.23;40.06;101320.88;5416442;32;36007;-67
2022/03/02 02:49:19;;;;;;;19.97;9.60;;;;;;;1.06;40.94;101322.34;5394751;32;34996;-74
2022/03/02 02:52:22;;;;;;;20.87;8.40;;;;;;;1.34;40.41;101318.41;5418678;32;34881;-67
2022/03/02 02:55:25;;;;;;;19.33;8.33;;;;;;;2.27;39.07;101313.44;5390016;32;34772;-73
2022/03/02 02:58:27;;;;;;;23.23;9.25;;;;;;;0.93;42.01;101310.94;5420808;32;35210;-67
2022/03/02 03:01:29;;;;;;;23.97;9.00;;;;;;;1.49;41.34;101320.34;5408997;32;35167;-72
2022/03/02 03:04:32;;;;;;;19.10;8.70;;;;;;;1.72;41.23;101312.84;5411249;32;35297;-67
2022/03/02 03:07:34;;;;;;;19.27;9.00;;;;;;;1.53;41.83;101317.78;5412525;32;35020;-67
2022/03/02 03:10:37;;;;;;;22.07;9.40;;;;;;;1.07;43.11;101324.94;5408481;32;34510;-72
2022/03/02 03:13:39;;;;;;;22.87;10.52;;;;;;;1.04;43.45;101319.75;5403857;32;36467;-72
2022/03/02 03:16:42;;;;;;;20.27;9.53;;;;;;;1.17;43.47;101312.16;5403903;32;44605;-74
2022/03/02 03:19:44;;;;;;;25.80;9.53;;;;;;;1.48;42.72;101319.47;5405179;32;34902;-68
2022/03/02 03:22:47;;;;;;;22.43;8.97;;;;;;;1.22;42.97;101315.66;5411574;32;35400;-72
2022/03/02 03:25:49;;;;;;;18.13;8.80;;;;;;;1.08;42.44;101325.81;5401218;32;34761;-74
2022/03/02 03:28:51;;;;;;;20.23;8.70;;;;;;;0.92;42.59;101324.72;5407805;32;33175;-67
2022/03/02 03:31:53;;;;;;;19.60;8.37;;;;;;;0.97;42.37;101323.09;5425641;32;34854;-68
2022/03/02 03:34:56;;;;;;;27.30;9.23;;;;;;;1.20;41.63;101320.81;5434678;32;34581;-68
2022/03/02 03:37:58;;;;;;;18.93;9.00;;;;;;;1.13;42.29;101313.81;5397041;32;34901;-72
2022/03/02 03:41:01;;;;;;;20.37;8.60;;;;;;;0.90;42.26;101313.50;5411147;32;34196;-67
2022/03/02 03:44:03;;;;;;;20.70;8.60;;;;;;;0.67;42.68;101312.25;5419835;32;34332;-67
2022/03/02 03:47:07;;;;;;;19.00;8.87;;;;;;;0.58;43.25;101317.25;5414453;32;34592;-68
2022/03/02 03:50:10;;;;;;;20.80;8.48;;;;;;;0.52;43.14;101311.16;5434436;32;34371;-67
2022/03/02 03:53:12;;;;;;;18.90;8.33;;;;;;;0.42;42.62;101321.31;5419645;32;43386;-74
2022/03/02 03:56:14;;;;;;;18.53;8.13;;;;;;;0.54;42.20;101318.94;5429974;32;35217;-72
2022/03/02 03:59:16;;;;;;;20.80;8.63;;;;;;;0.12;43.03;101313.88;5403691;32;34730;-68
2022/03/02 04:02:18;;;;;;;15.33;6.47;;;;;;;0.43;42.90;101313.59;5401353;32;34609;-67
2022/03/02 04:05:21;;;;;;;18.00;6.80;;;;;;;1.18;40.87;101304.41;5416690;32;34716;-74
2022/03/02 04:08:23;;;;;;;15.67;7.33;;;;;;;0.90;40.86;101310.91;5399987;32;35185;-68
2022/03/02 04:11:25;;;;;;;16.07;6.37;;;;;;;1.13;41.22;101306.03;5416052;32;35110;-67
2022/03/02 04:14:28;;;;;;;17.77;7.10;;;;;;;2.32;37.83;101290.97;5392403;32;36625;-73
2022/03/02 04:17:30;;;;;;;14.07;6.03;;;;;;;0.99;39.93;101302.41;5404826;32;34099;-72
2022/03/02 04:20:35;;;;;;;18.97;7.33;;;;;;;1.06;40.28;101306.81;5411587;32;35100;-67
2022/03/02 04:23:38;;;;;;;21.17;6.60;;;;;;;0.96;39.87;101307.50;5438230;32;35403;-73
2022/03/02 04:26:40;;;;;;;18.37;5.90;;;;;;;1.38;38.82;101296.88;5402736;32;38617;-66
2022/03/02 04:29:43;;;;;;;14.93;6.83;;;;;;;1.39;38.81;101292.56;5398516;32;34551;-67
2022/03/02 04:32:45;;;;;;;16.30;6.83;;;;;;;1.45;38.73;101303.03;5399401;32;33966;-72
2022/03/02 04:35:47;;;;;;;15.10;5.90;;;;;;;1.70;38.10;101297.28;5405602;32;35483;-73
2022/03/02 04:38:49;;;;;;;23.00;6.67;;;;;;;0.96;38.89;101290.25;5415256;32;34529;-68
2022/03/02 04:41:52;;;;;;;16.83;5.90;;;;;;;0.92;39.42;101285.91;5382615;32;35323;-67
2022/03/02 04:44:54;;;;;;;14.17;5.37;;;;;;;0.71;40.16;101293.31;5421460;32;34117;-74
2022/03/02 04:48:00;;;;;;;13.13;5.40;;;;;;;0.55;40.54;101284.47;5425320;32;35162;-73
2022/03/02 04:51:02;;;;;;;15.23;5.33;;;;;;;0.34;40.76;101290.16;5408892;32;34645;-73
2022/03/02 04:54:05;;;;;;;15.57;5.90;;;;;;;0.42;40.74;101290.28;5425704;32;34543;-69
2022/03/02 04:57:09;;;;;;;16.83;6.03;;;;;;;0.37;41.20;101287.63;5432457;32;35239;-68
2022/03/02 05:00:23;;;;;;;15.83;6.00;;;;;;;0.54;40.75;101288.78;5400041;32;44372;-74
2022/03/02 05:03:31;;;;;;;16.67;6.60;;;;;;;0.38;41.20;101279.00;5409875;32;34229;-68
2022/03/02 05:06:33;;;;;;;17.17;6.50;;;;;;;1.14;40.19;101276.72;5406408;32;34382;-74
2022/03/02 05:09:35;;;;;;;12.43;5.40;;;;;;;0.49;41.47;101274.03;5424976;32;34723;-73
2022/03/02 05:12:37;;;;;;;17.77;7.23;;;;;;;1.02;40.27;101271.34;5417717;32;34556;-68
2022/03/02 05:15:39;;;;;;;16.63;6.87;;;;;;;1.59;39.36;101265.19;5416410;32;34775;-71
2022/03/02 05:18:44;;;;;;;20.20;6.00;;;;;;;0.84;40.58;101276.28;5411869;32;35364;-67
2022/03/02 05:21:47;;;;;;;14.43;6.03;;;;;;;0.71;41.04;101275.22;5414763;32;35405;-68
2022/03/02 05:24:49;;;;;;;14.17;5.50;;;;;;;1.87;38.47;101268.97;5403222;32;35045;-74
2022/03/02 05:27:52;;;;;;;14.27;6.20;;;;;;;1.85;38.00;101266.34;5399913;32;35120;-74
2022/03/02 05:30:54;;;;;;;17.10;6.80;;;;;;;1.18;39.69;101272.47;5407680;32;35277;-68
2022/03/02 05:33:56;;;;;;;17.10;6.97;;;;;;;1.54;39.33;101272.91;5411254;32;35167;-67
2022/03/02 05:36:59;;;;;;;17.20;7.83;;;;;;;1.76;38.77;101258.47;5394962;32;34330;-67
2022/03/02 05:40:05;;;;;;;21.57;8.80;;;;;;;1.86;38.96;101256.84;5380128;32;34679;-67
2022/03/02 05:43:07;;;;;;;22.13;8.53;;;;;;;1.04;41.09;101269.69;5409454;32;34214;-73
2022/03/02 05:46:09;;;;;;;20.90;9.43;;;;;;;0.89;42.04;101264.28;5409198;32;35217;-73
2022/03/02 05:49:13;;;;;;;24.20;10.40;;;;;;;1.45;41.38;101277.97;5398365;32;45014;-67
2022/03/02 05:52:15;;;;;;;22.95;9.48;;;;;;;1.43;41.31;101264.16;5431468;32;35117;-67
2022/03/02 05:55:17;;;;;;;21.10;9.53;;;;;;;0.93;42.79;101260.87;5392246;32;35240;-67
2022/03/02 05:58:19;;;;;;;26.07;9.40;;;;;;;2.09;40.44;101257.94;5428154;32;34768;-68
2022/03/02 06:01:22;;;;;;;20.40;9.57;;;;;;;1.35;41.63;101256.28;5407191;32;34699;-73
2022/03/02 06:04:24;;;;;;;19.97;9.27;;;;;;;1.82;40.66;101257.69;5425888;32;35117;-73
2022/03/02 06:07:26;;;;;;;25.47;10.37;;;;;;;2.55;39.43;101258.31;5398407;32;34701;-68
2022/03/02 06:10:29;;;;;;;29.33;10.43;;;;;;;2.54;39.22;101264.37;5403790;32;35204;-74
2022/03/02 06:13:31;;;;;;;23.10;11.17;;;;;;;2.81;39.14;101257.63;5423549;32;34410;-68
2022/03/02 06:16:33;;;;;;;22.53;10.47;;;;;;;3.85;36.98;101255.50;5407359;32;34832;-67
2022/03/02 06:19:36;;;;;;;27.07;9.73;;;;;;;4.47;35.83;101252.97;5404025;32;33565;-74
2022/03/02 06:22:39;;;;;;;22.50;10.03;;;;;;;5.15;34.21;101248.47;5403737;32;35201;-68
2022/03/02 06:25:41;;;;;;;25.37;10.20;;;;;;;4.84;34.50;101252.94;5389898;32;44728;-67
2022/03/02 06:28:44;;;;;;;23.47;11.77;;;;;;;3.72;37.42;101267.59;5411915;32;34886;-73
2022/03/02 06:31:47;;;;;;;25.45;11.32;;;;;;;3.47;38.17;101266.63;5386766;32;34830;-67
2022/03/02 06:34:49;;;;;;;23.87;10.60;;;;;;;3.92;37.62;101263.31;5411942;32;33234;-75
2022/03/02 06:37:51;;;;;;;28.30;11.50;;;;;;;3.97;37.05;101261.59;5388262;32;34056;-74
2022/03/02 06:40:57;;;;;;;30.50;10.80;;;;;;;4.61;36.50;101266.84;5387737;32;34654;-72
2022/03/02 06:44:09;;;;;;;32.83;14.23;;;;;;;5.25;34.32;101250.19;5401900;32;36599;-68
2022/03/02 06:47:13;;;;;;;30.33;11.73;;;;;;;5.91;33.34;101240.34;5402326;32;44045;-70
2022/03/02 06:50:17;;;;;;;23.83;11.40;;;;;;;6.56;32.63;101245.06;5418378;32;34784;-69
2022/03/02 06:53:33;;;;;;;18.83;8.25;;;;;;;6.03;33.75;101243.75;5402733;32;34914;-69
2022/03/02 06:56:40;;;;;;;21.83;8.40;;;;;;;6.54;31.81;101232.03;5422395;32;34501;-69
2022/03/02 06:59:44;;;;;;;20.13;7.00;;;;;;;7.96;29.40;101221.59;5393444;32;46638;-73
2022/03/02 07:02:49;;;;;;;24.60;7.97;;;;;;;7.48;28.23;101232.75;5403194;32;34065;-67
2022/03/02 07:05:53;;;;;;;20.33;7.17;;;;;;;6.15;30.41;101241.06;5407716;32;34068;-69
2022/03/02 07:08:56;;;;;;;13.23;6.60;;;;;;;7.67;28.61;101227.28;5403357;32;35601;-68
2022/03/02 07:12:03;;;;;;;17.50;7.13;;;;;;;9.15;25.99;101217.81;5389993;32;35351;-69
2022/03/02 07:15:06;;;;;;;19.23;7.70;;;;;;;6.65;29.43;101229.31;5393506;32;34155;-66
2022/03/02 07:18:09;;;;;;;15.82;7.22;;;;;;;9.91;25.03;101211.78;5401836;32;34541;-69
2022/03/02 07:21:13;;;;;;;19.67;8.50;;;;;;;9.76;25.01;101218.25;5404005;32;44388;-66
2022/03/02 07:24:20;;;;;;;19.50;7.43;;;;;;;11.75;22.64;101205.94;5400845;32;34087;-66
2022/03/02 07:27:23;;;;;;;18.07;9.00;;;;;;;11.72;22.39;101203.41;5414476;32;34164;-66
2022/03/02 07:30:28;;;;;;;19.50;7.17;;;;;;;9.15;25.14;101209.94;5418389;32;34295;-73
2022/03/02 07:33:31;;;;;;;15.47;6.97;;;;;;;10.17;24.29;101209.38;5415265;32;35565;-71
2022/03/02 07:36:33;;;;;;;14.57;7.40;;;;;;;10.65;24.12;101209.09;5412308;32;34246;-73
2022/03/02 07:39:36;;;;;;;17.60;8.37;;;;;;;12.36;21.86;101195.22;5376156;32;35250;-65
2022/03/02 07:42:38;;;;;;;17.93;7.87;;;;;;;12.11;22.56;101189.91;5391396;32;34071;-67
2022/03/02 07:45:40;;;;;;;21.52;6.97;;;;;;;11.09;22.35;101196.50;5403418;32;44901;-72
2022/03/02 07:48:42;;;;;;;16.07;6.60;;;;;;;13.59;19.62;101182.00;5419470;32;34185;-72
2022/03/02 07:51:45;;;;;;;14.87;7.30;;;;;;;14.01;18.94;101181.19;5413711;32;34059;-68
2022/03/02 07:54:55;;;;;;;14.53;6.67;;;;;;;13.13;19.56;101175.75;5414377;32;34373;-71
2022/03/02 07:57:57;;;;;;;16.87;6.17;;;;;;;12.36;20.96;101177.62;5412309;32;35086;-67
2022/03/02 08:01:03;;;;;;;15.47;6.73;;;;;;;11.62;21.53;101168.59;5397582;32;34069;-68
2022/03/02 08:04:07;;;;;;;22.37;8.30;;;;;;;10.29;23.14;101174.97;5419711;32;35482;-68
2022/03/02 08:07:10;;;;;;;14.50;6.70;;;;;;;9.14;24.66;101178.47;5422966;32;34349;-64
2022/03/02 08:10:15;;;;;;;;;;;;;;;9.02;24.99;101176.13;5397570;32;34191;-70
2022/03/02 08:13:18;;;;;;;12.33;5.10;;;;;;;8.00;26.26;101179.66;5380715;32;34475;-73
2022/03/02 08:16:21;;;;;;;14.20;6.17;;;;;;;6.12;28.26;101189.75;5414100;32;34198;-66
2022/03/02 08:19:24;;;;;;;18.77;6.55;;;;;;;5.91;29.08;101190.75;5380301;32;37102;-68
2022/03/02 08:22:30;;;;;;;13.57;5.60;;;;;;;6.40;28.23;101184.28;5386526;32;34248;-67
2022/03/02 08:25:33;;;;;;;13.43;4.93;;;;;;;6.35;28.46;101183.47;5398608;32;35547;-78
2022/03/02 08:28:36;;;;;;;14.18;5.43;;;;;;;7.80;26.59;101168.63;5378242;32;34105;-75
2022/03/02 08:31:40;;;;;;;12.60;5.20;;;;;;;6.69;28.17;101171.78;5410462;32;34327;-81
2022/03/02 08:34:43;;;;;;;11.87;5.20;;;;;;;6.25;28.60;101167.03;5419222;32;44941;-71
2022/03/02 08:37:46;;;;;;;12.37;4.90;;;;;;;6.47;28.82;101167.69;5421690;32;34277;-79
2022/03/02 08:40:48;;;;;;;12.57;5.17;;;;;;;6.51;29.04;101170.25;5383255;32;33982;-79
2022/03/02 08:43:50;;;;;;;13.40;4.93;;;;;;;6.68;29.14;101158.75;5388132;32;35345;-70
2022/03/02 08:46:53;;;;;;;11.33;4.80;;;;;;;6.34;30.05;101169.53;5409428;32;35698;-71
2022/03/02 08:49:55;;;;;;;13.10;4.93;;;;;;;6.39;30.41;101156.44;5411313;32;33156;-69
2022/03/02 08:52:58;;;;;;;14.17;4.60;;;;;;;6.88;29.62;101148.06;5423028;32;35318;-78
2022/03/02 08:56:03;;;;;;;9.70;4.10;;;;;;;6.38;30.10;101145.16;5422261;32;35545;-73
2022/03/02 08:59:08;;;;;;;12.23;4.80;;;;;;;7.30;27.50;101137.06;5420342;32;35950;-66
2022/03/02 09:02:11;;;;;;;18.50;5.83;;;;;;;7.38;27.54;101141.34;5402546;32;43956;-68
2022/03/02 09:05:13;;;;;;;17.07;5.40;;;;;;;7.00;27.65;101140.94;5395216;32;34067;-67
2022/03/02 09:08:16;;;;;;;12.60;5.53;;;;;;;6.55;28.83;101149.31;5420315;32;35158;-74
2022/03/02 09:11:18;;;;;;;13.97;5.07;;;;;;;7.41;27.01;101131.72;5387262;32;35359;-70
2022/03/02 09:14:21;;;;;;;15.57;6.87;;;;;;;7.37;26.96;101132.63;5419885;32;34030;-70
2022/03/02 09:17:25;;;;;;;13.40;5.00;;;;;;;8.16;26.23;101133.13;5421450;32;34127;-69
2022/03/02 09:20:28;;;;;;;11.17;5.23;;;;;;;7.73;26.47;101115.53;5422415;32;34751;-72
2022/03/02 09:23:34;;;;;;;14.47;5.87;;;;;;;6.23;29.10;101129.59;5414398;32;32105;-71
2022/03/02 09:26:38;;;;;;;15.07;5.73;;;;;;;7.93;26.75;101120.44;5416651;32;34065;-72
2022/03/02 09:29:45;;;;;;;13.20;5.17;;;;;;;7.15;27.77;101119.00;5415189;32;44635;-66
2022/03/02 09:32:51;;;;;;;23.53;6.20;;;;;;;7.46;27.27;101119.41;5400319;32;34131;-74
2022/03/02 09:35:56;;;;;;;15.93;6.53;;;;;;;6.84;28.21;101112.44;5418772;32;33987;-66
2022/03/02 09:38:58;;;;;;;11.17;5.17;;;;;;;6.72;28.52;101122.13;5396521;32;35363;-69
2022/03/02 09:42:06;;;;;;;13.67;5.57;;;;;;;8.38;26.14;101112.72;5377572;32;33339;-68
2022/03/02 09:45:10;;;;;;;11.93;5.27;;;;;;;7.80;26.78;101108.44;5414895;32;35325;-66
2022/03/02 09:48:22;;;;;;;17.90;6.03;;;;;;;7.15;27.84;101107.66;5401875;32;43350;-71
2022/03/02 09:51:26;;;;;;;18.53;7.73;;;;;;;8.08;26.18;101104.47;5399206;32;35589;-67
2022/03/02 09:54:29;;;;;;;13.93;5.68;;;;;;;6.46;28.41;101114.59;5384969;32;34071;-68
2022/03/02 09:57:32;;;;;;;14.27;5.20;;;;;;;7.77;25.86;101100.63;5396011;32;34797;-70
2022/03/02 10:00:35;;;;;;;18.60;5.90;;;;;;;8.30;24.75;101086.59;5406016;32;34053;-66
2022/03/02 10:03:37;;;;;;;12.02;5.43;;;;;;;8.18;24.20;101085.94;5401872;32;34133;-63
2022/03/02 10:06:43;;;;;;;13.37;4.97;;;;;;;9.36;23.04;101081.81;5410110;32;45503;-72
2022/03/02 10:09:51;;;;;;;19.07;5.37;;;;;;;9.12;23.15;101081.47;5412010;32;33940;-65
2022/03/02 10:13:01;;;;;;;12.87;5.00;;;;;;;8.90;23.12;101070.59;5413556;32;35336;-71
2022/03/02 10:16:04;;;;;;;12.33;5.80;;;;;;;8.07;23.90;101080.94;5423464;32;34279;-70
2022/03/02 10:19:12;;;;;;;12.65;5.15;;;;;;;10.77;20.83;101048.38;5410993;32;34070;-73
2022/03/02 10:22:21;;;;;;;15.37;5.70;;;;;;;10.21;20.28;101056.06;5421421;32;44653;-70
2022/03/02 10:25:54;;;;;;;12.67;5.07;;;;;;;12.41;18.61;101050.94;5412573;32;34601;-69
2022/03/02 10:29:14;;;;;;;13.52;5.55;;;;;;;12.71;17.79;101043.69;5421960;32;35405;-72
2022/03/02 10:32:17;;;;;;;10.20;4.70;;;;;;;11.00;19.20;101052.94;5405768;32;44416;-67
2022/03/02 10:35:22;;;;;;;10.88;5.40;;;;;;;14.25;16.43;101031.28;5406592;32;34108;-71
2022/03/02 10:38:33;;;;;;;10.90;5.93;;;;;;;17.25;14.67;101023.22;5405644;32;35765;-71
2022/03/02 10:41:39;;;;;;;13.10;6.13;;;;;;;15.80;15.58;101028.38;5364594;32;35281;-69
2022/03/02 10:44:50;;;;;;;9.87;5.23;;;;;;;14.34;17.02;101022.91;5408324;32;44549;-73
2022/03/02 10:47:59;;;;;;;11.83;5.93;;;;;;;14.80;16.78;101023.50;5397954;32;33527;-79
2022/03/02 10:51:02;;;;;;;11.87;6.10;;;;;;;14.41;15.61;101024.34;5409656;32;34065;-72
2022/03/02 10:54:06;;;;;;;11.27;5.90;;;;;;;11.94;19.10;101021.84;5406334;32;35144;-71
2022/03/02 10:57:11;;;;;;;13.77;6.10;;;;;;;14.58;17.16;100997.19;5401545;32;33283;-76
2022/03/02 11:00:17;;;;;;;14.20;6.70;;;;;;;12.85;18.16;100993.91;5418111;32;43906;-73
2022/03/02 11:03:19;;;;;;;13.07;6.23;;;;;;;12.80;18.85;100987.94;5424036;32;34129;-73
2022/03/02 11:06:22;;;;;;;12.63;5.12;;;;;;;14.56;17.19;100981.41;5407118;32;34225;-75
2022/03/02 11:09:25;;;;;;;11.70;5.35;;;;;;;18.45;13.78;100969.13;5414648;32;34200;-67
2022/03/02 11:12:29;;;;;;;9.57;5.07;;;;;;;17.84;14.17;100970.25;5409552;32;35248;-71
2022/03/02 11:15:45;;;;;;;11.80;6.00;;;;;;;13.27;17.63;100996.66;5407040;32;34130;-69
2022/03/02 11:18:50;;;;;;;13.27;6.50;;;;;;;11.78;19.27;100995.12;5408555;32;46151;-71
2022/03/02 11:21:57;;;;;;;11.10;5.30;;;;;;;12.77;18.72;100980.16;5425321;32;35581;-73
2022/03/02 11:24:59;;;;;;;;;;;;;;;14.31;17.21;100962.25;5417651;32;34054;-66
2022/03/02 11:28:05;;;;;;;14.00;6.20;;;;;;;15.38;16.00;100957.16;5407926;32;35684;-68
2022/03/02 11:31:08;;;;;;;12.03;5.87;;;;;;;14.72;16.77;100951.56;5414466;32;34834;-67
2022/03/02 11:34:22;;;;;;;9.80;5.25;;;;;;;13.78;17.58;100944.31;5406382;32;44688;-67
2022/03/02 11:37:25;;;;;;;14.97;5.70;;;;;;;13.13;18.03;100959.34;5390111;32;35333;-85
2022/03/02 11:40:39;;;;;;;12.20;6.07;;;;;;;13.39;18.24;100944.25;5403333;32;35267;-67
2022/03/02 11:43:41;;;;;;;12.13;5.50;;;;;;;13.11;18.04;100944.50;5407649;32;44677;-63
2022/03/02 11:46:47;;;;;;;11.23;5.40;;;;;;;13.05;18.22;100939.47;5425768;32;35524;-71
2022/03/02 11:49:52;;;;;;;16.40;7.27;;;;;;;15.01;16.51;100927.22;5400300;32;36384;-78
2022/03/02 11:52:54;;;;;;;12.03;5.20;;;;;;;15.32;15.81;100918.59;5404159;32;35328;-74
2022/03/02 11:56:00;;;;;;;10.83;5.50;;;;;;;16.86;14.44;100908.66;5409368;32;35337;-73
2022/03/02 11:59:10;;;;;;;11.77;5.30;;;;;;;16.90;14.41;100916.34;5415211;32;34970;-80
2022/03/02 12:02:22;;;;;;;13.57;5.93;;;;;;;17.23;14.11;100905.59;5417468;32;44654;-67
2022/03/02 12:05:30;;;;;;;13.03;5.47;;;;;;;14.55;16.49;100910.88;5403270;32;34110;-71
2022/03/02 12:08:33;;;;;;;13.33;5.67;;;;;;;13.53;17.46;100911.06;5416965;32;31878;-70
2022/03/02 12:11:38;;;;;;;10.05;5.40;;;;;;;13.76;17.32;100911.84;5397927;32;34176;-69
2022/03/02 12:14:51;;;;;;;12.17;6.57;;;;;;;16.28;15.14;100896.78;5413219;32;44584;-79
2022/03/02 12:18:08;;;;;;;12.67;5.73;;;;;;;12.04;19.02;100912.59;5411196;32;34049;-75
2022/03/02 12:21:14;;;;;;;14.60;6.03;;;;;;;10.79;20.33;100911.59;5408683;32;44592;-71
2022/03/02 12:24:22;;;;;;;17.27;5.80;;;;;;;11.97;19.35;100900.56;5418947;32;34174;-69
2022/03/02 12:27:25;;;;;;;14.30;6.47;;;;;;;14.41;17.27;100886.00;5387910;32;35287;-73
2022/03/02 12:30:29;;;;;;;13.20;5.50;;;;;;;15.65;16.34;100873.69;5409002;32;33987;-69
2022/03/02 12:33:31;;;;;;;12.73;5.70;;;;;;;11.91;19.22;100896.41;5413107;32;34171;-76
2022/03/02 12:36:54;;;;;;;13.67;5.60;;;;;;;12.44;19.11;100885.63;5396944;32;34547;-68
2022/03/02 12:39:58;;;;;;;14.53;6.30;;;;;;;12.98;18.81;100876.41;5377401;32;35438;-68
2022/03/02 12:43:01;;;;;;;13.23;6.20;;;;;;;13.58;18.35;100873.88;5401958;32;34144;-76
2022/03/02 12:46:04;;;;;;;13.27;5.93;;;;;;;15.97;16.05;100866.66;5419140;32;34177;-73
2022/03/02 12:49:07;;;;;;;10.43;5.37;;;;;;;15.75;16.05;100860.78;5409623;32;35316;-72
2022/03/02 12:52:11;;;;;;;14.50;5.43;;;;;;;14.43;17.54;100858.56;5408509;32;33197;-81
2022/03/02 12:55:14;;;;;;;;;;;;;;;12.95;18.99;100867.78;5413145;32;34076;-67
2022/03/02 12:58:16;;;;;;;13.00;5.80;;;;;;;13.73;18.26;100849.44;5390490;32;34275;-70
2022/03/02 13:01:18;;;;;;;14.15;6.62;;;;;;;17.13;15.84;100831.84;5405159;32;33990;-72
2022/03/02 13:04:28;;;;;;;12.45;5.65;;;;;;;19.23;13.86;100828.22;5402161;32;35281;-71
2022/03/02 13:07:31;;;;;;;18.43;6.87;;;;;;;16.90;15.01;100831.41;5431822;32;34266;-71
2022/03/02 13:10:42;;;;;;;12.80;6.30;;;;;;;18.33;14.11;100818.22;5409858;32;35424;-71
2022/03/02 13:13:44;;;;;;;13.20;6.00;;;;;;;20.71;12.45;100820.34;5405758;32;43325;-71
2022/03/02 13:16:48;;;;;;;13.00;6.30;;;;;;;20.95;12.15;100808.78;5412976;32;34616;-69
2022/03/02 13:19:53;;;;;;;11.97;5.73;;;;;;;17.52;14.65;100813.53;5411538;32;34229;-69
2022/03/02 13:23:10;;;;;;;14.63;6.70;;;;;;;13.91;18.43;100820.47;5416199;32;35394;-71
2022/03/02 13:26:13;;;;;;;11.77;6.03;;;;;;;15.24;16.93;100816.66;5406779;32;44415;-75
2022/03/02 13:29:15;;;;;;;;;;;;;;;15.67;17.31;100797.59;5402570;32;34194;-68
2022/03/02 13:32:52;;;;;;;10.90;5.50;;;;;;;17.95;15.47;100778.94;5399580;32;33625;-68
2022/03/02 13:36:31;;;;;;;16.07;5.90;;;;;;;17.22;15.78;100786.16;5405419;32;34545;-70
2022/03/02 13:39:46;;;;;;;13.77;6.70;;;;;;;18.87;14.57;100775.63;5402069;32;34064;-86
2022/03/02 13:42:50;;;;;;;13.90;6.00;;;;;;;17.81;15.36;100768.34;5406718;32;46727;-71
2022/03/02 13:45:58;;;;;;;13.83;6.57;;;;;;;15.01;17.63;100780.78;5426603;32;32131;-65
2022/03/02 13:49:01;;;;;;;12.77;6.20;;;;;;;20.06;13.60;100763.75;5428190;32;34088;-64
2022/03/02 13:52:03;;;;;;;14.00;7.10;;;;;;;18.12;14.96;100769.91;5426221;32;35513;-66
2022/03/02 13:55:11;;;;;;;12.85;6.78;;;;;;;19.86;13.53;100768.72;5439774;32;34044;-68
2022/03/02 13:58:35;;;;;;;13.07;6.30;;;;;;;17.37;15.66;100765.75;5411142;32;35762;-69
2022/03/02 14:01:37;;;;;;;11.33;5.60;;;;;;;20.02;13.84;100758.63;5406782;32;34716;-69
2022/03/02 14:04:46;;;;;;;;;;;;;;;19.39;14.60;100764.94;5421917;32;44526;-74
2022/03/02 14:07:53;;;;;;;13.33;6.17;;;;;;;20.71;12.86;100748.22;5407504;32;34164;-65
2022/03/02 14:10:55;;;;;;;10.53;5.90;;;;;;;19.90;13.11;100754.22;5404706;32;34177;-66
2022/03/02 14:13:57;;;;;;;15.32;6.75;;;;;;;19.31;13.95;100742.41;5415281;32;34108;-63
2022/03/02 14:17:10;;;;;;;13.47;6.50;;;;;;;15.15;17.52;100763.25;5420000;32;34104;-78